Terminal Aerodrome Forecast
Issued by NWS

Home | Current Version | Previous Version | Text Only | Print | Product List | Glossary On
Versions: 1 2 3 4 5 6 7 8 9 10 11 12 13 14 15 16 17 18 19 20 21 22 23 24 25 26
586
FTUS46 KSEW 291431 AAA
TAFPAE
TAF AMD
KPAE 291431Z 2915/3012 VRB06KT 2SM -RA BR FEW017 OVC029
      TEMPO 2915/2918 5SM -RA BKN015 OVC025
     FM291800 18020G30KT P6SM VCSH SCT035 BKN060 BKN200
     FM300000 20013KT P6SM -SHRA FEW015 BKN030 OVC050
     FM300600 35007KT 4SM -SHRA BR SCT007 OVC015=

USA.gov is the U.S. government's official web portal to all federal, state and local government web resources and services.